Time;durP1;ratioP1;P1;durP2;ratioP2;P2;SDS_P1;SDS_P2;PMS_P1;PMS_P2;Temp;Humidity;BMP_temperature;BMP_pressure;BME280_temperature;BME280_humidity;BME280_pressure;Samples;Min_cycle;Max_cycle;Signal;HPM_P1;HPM_P2
2023/07/05 00:00:32;;;;;;;5.30;3.30;;;;;;;18.37;100.00;96941.25;5030772;28;20510;-66
2023/07/05 00:03:00;;;;;;;4.80;2.90;;;;;;;18.42;100.00;96941.88;5030635;28;20399;-66
2023/07/05 00:05:26;;;;;;;4.38;3.10;;;;;;;18.44;100.00;96942.38;5030684;28;20472;-67
2023/07/05 00:07:53;;;;;;;4.65;2.88;;;;;;;18.48;100.00;96923.78;5030814;28;20413;-66
2023/07/05 00:10:19;;;;;;;4.38;2.85;;;;;;;18.49;100.00;96922.69;5030788;28;20451;-67
2023/07/05 00:12:45;;;;;;;4.68;2.70;;;;;;;18.48;100.00;96929.94;5030407;28;20399;-67
2023/07/05 00:15:12;;;;;;;3.83;2.80;;;;;;;18.46;100.00;96926.78;5030530;28;20811;-66
2023/07/05 00:17:38;;;;;;;6.03;3.10;;;;;;;18.43;100.00;96924.69;5030706;28;20431;-67
2023/07/05 00:20:07;;;;;;;4.78;2.97;;;;;;;18.43;100.00;96922.03;5030637;28;20769;-67
2023/07/05 00:22:33;;;;;;;5.13;2.95;;;;;;;18.44;100.00;96928.16;5029092;28;20410;-67
2023/07/05 00:25:02;;;;;;;4.38;2.95;;;;;;;18.45;100.00;96930.53;5030624;28;20453;-67
2023/07/05 00:27:28;;;;;;;4.25;2.92;;;;;;;18.45;100.00;96927.06;5030636;28;20403;-66
2023/07/05 00:29:54;;;;;;;4.18;2.95;;;;;;;18.48;100.00;96932.63;5030620;28;20406;-67
2023/07/05 00:32:21;;;;;;;4.72;2.95;;;;;;;18.50;100.00;96927.72;5045729;28;20822;-67
2023/07/05 00:34:48;;;;;;;5.20;2.80;;;;;;;18.52;100.00;96924.72;5030502;28;20800;-66
2023/07/05 00:37:15;;;;;;;4.50;2.97;;;;;;;18.53;100.00;96924.41;5030469;28;20444;-66
2023/07/05 00:39:42;;;;;;;4.20;2.70;;;;;;;18.54;100.00;96911.81;5030468;28;20407;-67
2023/07/05 00:42:08;;;;;;;3.80;2.75;;;;;;;18.58;100.00;96914.66;5030404;28;20402;-66
2023/07/05 00:44:34;;;;;;;5.57;2.90;;;;;;;18.60;100.00;96913.25;5030413;28;20406;-66
2023/07/05 00:47:08;;;;;;;5.25;2.90;;;;;;;18.61;100.00;96906.00;5030007;28;20403;-67
2023/07/05 00:49:37;;;;;;;5.03;2.78;;;;;;;18.63;100.00;96903.81;5030569;28;20795;-66
2023/07/05 00:52:08;;;;;;;3.17;2.33;;;;;;;18.66;100.00;96895.91;5030433;28;21002;-66
2023/07/05 00:54:43;;;;;;;5.13;2.95;;;;;;;18.70;100.00;96898.75;5030535;28;20402;-67
2023/07/05 00:57:14;;;;;;;3.92;2.60;;;;;;;18.68;100.00;96879.50;5030261;28;20493;-67
2023/07/05 00:59:46;;;;;;;3.42;2.53;;;;;;;18.69;100.00;96875.72;5030275;28;20423;-66
2023/07/05 01:02:14;;;;;;;4.47;2.92;;;;;;;18.72;100.00;96880.47;5030133;28;20399;-66
2023/07/05 01:04:40;;;;;;;5.20;3.00;;;;;;;18.72;100.00;96878.56;5030154;28;20746;-66
2023/07/05 01:07:07;;;;;;;4.03;2.70;;;;;;;18.76;100.00;96892.94;5030244;28;20403;-67
2023/07/05 01:09:33;;;;;;;2.93;2.37;;;;;;;18.76;100.00;96882.19;5030474;28;20544;-66
2023/07/05 01:12:11;;;;;;;3.88;2.30;;;;;;;18.80;100.00;96882.34;5030074;28;20406;-66
2023/07/05 01:14:47;;;;;;;8.17;2.53;;;;;;;18.86;100.00;96889.16;5028796;28;20404;-67
2023/07/05 01:17:19;;;;;;;5.53;2.60;;;;;;;18.81;100.00;96892.75;5030101;28;20877;-66
2023/07/05 01:20:10;;;;;;;5.18;2.40;;;;;;;18.71;100.00;96882.38;5030115;28;20593;-66
2023/07/05 01:23:02;;;;;;;3.33;2.30;;;;;;;18.59;100.00;96897.47;5029698;28;20490;-66
2023/07/05 01:25:59;;;;;;;4.03;2.53;;;;;;;18.47;100.00;96882.78;5028818;28;20924;-66
2023/07/05 01:29:01;;;;;;;3.75;2.30;;;;;;;18.37;100.00;96874.25;5026327;28;20430;-66
2023/07/05 01:31:48;;;;;;;5.00;2.60;;;;;;;18.31;100.00;96875.50;5025518;28;20468;-66
2023/07/05 01:34:25;;;;;;;6.20;2.80;;;;;;;18.24;100.00;96881.31;5033215;28;20395;-66
2023/07/05 01:36:51;;;;;;;3.35;2.60;;;;;;;18.17;100.00;96881.78;5033453;28;20403;-66
2023/07/05 01:39:18;;;;;;;6.60;2.75;;;;;;;18.11;100.00;96874.22;5033398;28;20410;-66
2023/07/05 01:41:44;;;;;;;4.33;3.10;;;;;;;18.03;100.00;96873.09;5033160;28;20418;-66
2023/07/05 01:44:14;;;;;;;3.47;2.75;;;;;;;17.95;100.00;96865.81;5033235;28;20494;-66
2023/07/05 01:46:49;;;;;;;3.17;2.40;;;;;;;17.88;100.00;96860.13;5033382;28;20488;-66
2023/07/05 01:49:40;;;;;;;3.22;2.50;;;;;;;17.81;100.00;96862.47;5033415;28;20901;-66
2023/07/05 01:52:14;;;;;;;3.90;3.10;;;;;;;17.76;100.00;96881.31;5033020;28;20403;-66
2023/07/05 01:54:53;;;;;;;5.72;3.08;;;;;;;17.71;100.00;96884.16;5033058;28;20396;-66
2023/07/05 01:57:24;;;;;;;4.82;3.25;;;;;;;17.65;100.00;96888.06;5033104;28;20483;-66
2023/07/05 01:59:57;;;;;;;3.57;2.90;;;;;;;17.60;100.00;96891.63;5032961;28;20783;-66
2023/07/05 02:02:27;;;;;;;3.35;2.65;;;;;;;17.56;100.00;96898.69;5032772;28;20406;-66
2023/07/05 02:04:55;;;;;;;3.60;2.70;;;;;;;17.53;100.00;96901.97;5031658;28;20433;-66
2023/07/05 02:07:25;;;;;;;3.63;2.63;;;;;;;17.52;100.00;96910.31;5032885;28;20407;-66
2023/07/05 02:09:51;;;;;;;4.20;2.95;;;;;;;17.51;100.00;96901.50;5032894;28;20760;-66
2023/07/05 02:12:17;;;;;;;4.45;3.20;;;;;;;17.53;100.00;96914.56;5032590;28;20498;-66
2023/07/05 02:14:44;;;;;;;3.25;2.70;;;;;;;17.55;100.00;96923.09;5032796;28;20884;-66
2023/07/05 02:17:10;;;;;;;4.90;2.80;;;;;;;17.57;100.00;96924.38;5032775;28;20469;-66
2023/07/05 02:19:38;;;;;;;3.92;3.05;;;;;;;17.59;100.00;96916.03;5032673;28;20460;-66
2023/07/05 02:22:04;;;;;;;5.15;3.00;;;;;;;17.63;100.00;96930.41;5032527;28;20454;-66
2023/07/05 02:24:31;;;;;;;5.25;3.08;;;;;;;17.66;100.00;96927.13;5031186;28;20411;-66
2023/07/05 02:26:59;;;;;;;5.13;2.95;;;;;;;17.68;100.00;96941.75;5032584;28;20403;-66
2023/07/05 02:29:26;;;;;;;4.55;3.10;;;;;;;17.71;100.00;96938.47;5032544;28;20990;-66
2023/07/05 02:31:52;;;;;;;3.10;2.75;;;;;;;17.73;100.00;96936.28;5032433;28;20394;-66
2023/07/05 02:34:19;;;;;;;7.70;3.65;;;;;;;17.72;100.00;96942.75;5032219;28;20407;-67
2023/07/05 02:36:47;;;;;;;4.50;3.40;;;;;;;17.68;100.00;96949.78;5032373;28;20485;-66
2023/07/05 02:39:13;;;;;;;3.50;2.85;;;;;;;17.63;100.00;96935.75;5032376;28;20403;-66
2023/07/05 02:41:39;;;;;;;3.53;3.00;;;;;;;17.55;100.00;96934.59;5031022;28;20896;-66
2023/07/05 02:44:05;;;;;;;5.55;3.90;;;;;;;17.52;100.00;96953.13;5032115;28;20421;-67
2023/07/05 02:46:32;;;;;;;4.20;3.40;;;;;;;17.47;100.00;96955.94;5032128;28;20730;-66
2023/07/05 02:48:58;;;;;;;4.93;3.53;;;;;;;17.39;100.00;96950.22;5032149;28;20908;-66
2023/07/05 02:51:24;;;;;;;4.50;3.13;;;;;;;17.37;100.00;96939.03;5032017;28;20434;-66
2023/07/05 02:53:52;;;;;;;5.43;3.63;;;;;;;17.32;100.00;96943.72;5030448;28;20419;-66
2023/07/05 02:56:18;;;;;;;4.80;3.50;;;;;;;17.33;100.00;96945.31;5031902;28;21000;-66
2023/07/05 02:58:44;;;;;;;5.70;3.70;;;;;;;17.31;100.00;96936.78;5031924;28;20435;-66
2023/07/05 03:01:11;;;;;;;4.05;3.50;;;;;;;17.28;100.00;96930.19;5031712;28;20426;-66
2023/07/05 03:03:37;;;;;;;4.95;3.53;;;;;;;17.28;100.00;96935.53;5031524;28;20404;-66
2023/07/05 03:06:04;;;;;;;4.18;3.58;;;;;;;17.29;100.00;96928.31;5031801;28;21094;-66
2023/07/05 03:08:30;;;;;;;6.72;4.30;;;;;;;17.32;100.00;96939.16;5031741;28;20399;-66
2023/07/05 03:10:59;;;;;;;6.35;4.10;;;;;;;17.29;100.00;96937.09;5030271;28;20395;-66
2023/07/05 03:13:28;;;;;;;5.07;3.60;;;;;;;17.29;100.00;96945.13;5031300;28;20899;-66
2023/07/05 03:15:54;;;;;;;5.53;4.07;;;;;;;17.30;100.00;96948.59;5031319;28;20415;-66
2023/07/05 03:18:20;;;;;;;5.43;4.00;;;;;;;17.30;100.00;96952.03;5031520;28;20426;-66
2023/07/05 03:20:47;;;;;;;5.40;3.47;;;;;;;17.32;100.00;96951.75;5031497;28;20418;-66
2023/07/05 03:23:14;;;;;;;6.25;4.03;;;;;;;17.30;100.00;96943.22;5031231;28;20411;-66
2023/07/05 03:25:41;;;;;;;4.72;3.38;;;;;;;17.28;100.00;96942.75;5031348;28;20411;-66
2023/07/05 03:28:08;;;;;;;4.32;3.45;;;;;;;17.26;100.00;96944.94;5031411;28;20876;-66
2023/07/05 03:30:36;;;;;;;4.28;3.35;;;;;;;17.25;100.00;96946.81;5031333;28;20399;-66
2023/07/05 03:33:02;;;;;;;4.57;3.42;;;;;;;17.25;100.00;96949.50;5031083;28;20411;-66
2023/07/05 03:35:28;;;;;;;5.28;3.63;;;;;;;17.24;100.00;96950.59;5031200;28;20403;-66
2023/07/05 03:37:54;;;;;;;4.30;3.53;;;;;;;17.23;100.00;96950.88;5031260;28;20467;-66
2023/07/05 03:40:20;;;;;;;4.80;3.50;;;;;;;17.23;100.00;96959.72;5030922;28;20910;-66
2023/07/05 03:42:47;;;;;;;3.80;3.40;;;;;;;17.24;100.00;96955.16;5030827;28;20403;-66
2023/07/05 03:45:14;;;;;;;5.80;3.78;;;;;;;17.21;100.00;96966.47;5031021;28;20401;-66
2023/07/05 03:47:40;;;;;;;4.82;3.63;;;;;;;17.18;100.00;96957.16;5030999;28;20483;-66
2023/07/05 03:50:07;;;;;;;5.40;3.58;;;;;;;17.15;100.00;96967.66;5030904;28;20410;-66
2023/07/05 03:52:34;;;;;;;5.97;3.57;;;;;;;17.10;100.00;96952.53;5030325;28;20409;-66
2023/07/05 03:55:00;;;;;;;4.53;3.17;;;;;;;17.07;100.00;96963.03;5031220;28;20906;-66
2023/07/05 03:57:26;;;;;;;4.38;3.67;;;;;;;17.02;100.00;96955.94;5030885;28;20403;-66
2023/07/05 03:59:52;;;;;;;5.50;4.03;;;;;;;16.98;100.00;96953.09;5030283;28;20405;-67
2023/07/05 04:02:20;;;;;;;5.57;3.90;;;;;;;16.94;100.00;96962.78;5030108;28;20411;-66
2023/07/05 04:04:46;;;;;;;5.93;3.40;;;;;;;16.91;100.00;96960.75;5028162;28;20399;-66
2023/07/05 04:07:12;;;;;;;4.00;3.38;;;;;;;16.87;100.00;96967.75;5030647;28;20415;-66
2023/07/05 04:09:38;;;;;;;4.38;3.50;;;;;;;16.87;100.00;96966.97;5029170;28;20891;-67
2023/07/05 04:12:05;;;;;;;8.03;4.47;;;;;;;16.81;100.00;96966.31;5030503;28;20395;-66
2023/07/05 04:14:31;;;;;;;5.23;3.67;;;;;;;16.80;100.00;96963.91;5029201;28;20581;-67
2023/07/05 04:16:58;;;;;;;5.18;3.83;;;;;;;16.81;100.00;96970.84;5027514;28;20423;-66
2023/07/05 04:19:26;;;;;;;5.05;3.80;;;;;;;16.82;100.00;96967.09;5030023;28;20494;-66
2023/07/05 04:21:52;;;;;;;6.10;3.72;;;;;;;16.79;100.00;96955.09;5030030;28;20951;-65
2023/07/05 04:24:18;;;;;;;5.15;3.75;;;;;;;16.77;100.00;96959.97;5030438;28;20406;-66
2023/07/05 04:26:44;;;;;;;5.22;4.05;;;;;;;16.78;100.00;96952.72;5030536;28;20399;-67
2023/07/05 04:29:10;;;;;;;7.53;3.72;;;;;;;16.76;100.00;96942.38;5030772;28;20430;-66
2023/07/05 04:31:37;;;;;;;4.82;3.63;;;;;;;16.78;100.00;96944.72;5030721;28;20866;-66
2023/07/05 04:34:03;;;;;;;5.77;4.27;;;;;;;16.80;100.00;96956.69;5030619;28;20931;-66
2023/07/05 04:36:30;;;;;;;5.07;3.80;;;;;;;16.78;100.00;96948.19;5030641;28;20407;-66
2023/07/05 04:38:57;;;;;;;4.03;3.37;;;;;;;16.79;100.00;96939.06;5030725;28;20411;-66
2023/07/05 04:41:24;;;;;;;3.85;3.42;;;;;;;16.78;100.00;96937.47;5030556;28;20780;-66
2023/07/05 04:43:51;;;;;;;4.93;3.55;;;;;;;16.79;100.00;96936.41;5030603;28;20395;-66
2023/07/05 04:46:17;;;;;;;5.47;3.70;;;;;;;16.79;100.00;96946.28;5030702;28;20399;-66
2023/07/05 04:48:44;;;;;;;4.78;3.60;;;;;;;16.78;100.00;96944.72;5030749;28;20787;-66
2023/07/05 04:51:10;;;;;;;4.85;3.40;;;;;;;16.79;100.00;96948.97;5030666;28;20469;-66
2023/07/05 04:53:38;;;;;;;4.70;3.00;;;;;;;16.82;100.00;96945.72;5030234;28;20414;-66
2023/07/05 04:56:04;;;;;;;4.68;3.53;;;;;;;16.88;100.00;96942.63;5029694;28;20494;-66
2023/07/05 04:58:31;;;;;;;4.88;3.30;;;;;;;16.94;100.00;96929.91;5030291;28;20781;-66
2023/07/05 05:01:02;;;;;;;3.58;3.10;;;;;;;17.04;100.00;96929.69;5030468;28;20419;-66
2023/07/05 05:03:29;;;;;;;5.28;3.67;;;;;;;17.07;100.00;96926.38;5029834;28;20542;-66
2023/07/05 05:05:55;;;;;;;5.35;3.30;;;;;;;17.15;100.00;96927.53;5032790;28;20410;-66
2023/07/05 05:08:23;;;;;;;7.20;4.30;;;;;;;17.24;100.00;96915.81;5034043;28;20485;-66
2023/07/05 05:10:52;;;;;;;6.30;3.50;;;;;;;17.27;100.00;96907.19;5034141;28;20399;-67
2023/07/05 05:13:19;;;;;;;4.25;3.40;;;;;;;17.31;100.00;96910.03;5033912;28;20497;-66
2023/07/05 05:15:45;;;;;;;5.70;4.00;;;;;;;17.36;100.00;96909.94;5033836;28;20442;-66
2023/07/05 05:18:12;;;;;;;4.00;3.03;;;;;;;17.39;100.00;96899.38;5034199;28;20410;-67
2023/07/05 05:20:39;;;;;;;5.93;3.40;;;;;;;17.45;100.00;96908.06;5033132;28;20426;-67
2023/07/05 05:23:05;;;;;;;7.10;3.38;;;;;;;17.50;100.00;96905.28;5033610;28;20482;-67
2023/07/05 05:25:33;;;;;;;3.25;2.80;;;;;;;17.53;100.00;96901.19;5033789;28;20403;-67
2023/07/05 05:28:01;;;;;;;4.40;2.95;;;;;;;17.60;100.00;96913.03;5032408;28;20414;-67
2023/07/05 05:30:27;;;;;;;3.58;3.00;;;;;;;17.66;100.00;96922.56;5033840;28;20397;-67
2023/07/05 05:32:53;;;;;;;6.50;4.20;;;;;;;17.70;100.00;96925.41;5033406;28;20453;-67
2023/07/05 05:35:20;;;;;;;5.75;3.67;;;;;;;17.69;100.00;96923.81;5033711;28;20958;-67
2023/07/05 05:37:46;;;;;;;3.42;2.88;;;;;;;17.65;100.00;96931.69;5033671;28;20435;-67
2023/07/05 05:40:12;;;;;;;2.97;2.67;;;;;;;17.69;100.00;96926.50;5032009;28;20410;-67
2023/07/05 05:42:38;;;;;;;4.82;3.40;;;;;;;17.75;100.00;96938.66;5033247;28;20438;-67
2023/07/05 05:45:07;;;;;;;3.63;2.90;;;;;;;17.78;100.00;96938.03;5033337;28;20738;-67
2023/07/05 05:47:33;;;;;;;6.20;3.40;;;;;;;17.78;100.00;96941.50;5033369;28;20442;-67
2023/07/05 05:49:59;;;;;;;4.32;3.17;;;;;;;17.88;100.00;96931.63;5033574;28;20403;-67
2023/07/05 05:52:26;;;;;;;4.68;3.40;;;;;;;18.02;100.00;96938.47;5033175;28;20403;-67
2023/07/05 05:54:52;;;;;;;6.03;3.53;;;;;;;18.08;100.00;96939.91;5031954;28;20888;-67
2023/07/05 05:57:18;;;;;;;4.40;3.13;;;;;;;18.13;100.00;96939.75;5033327;28;20965;-67
2023/07/05 05:59:45;;;;;;;6.07;3.78;;;;;;;18.22;100.00;96941.69;5033286;28;20403;-67
2023/07/05 06:02:12;;;;;;;5.35;3.70;;;;;;;18.31;100.00;96942.50;5031614;28;20489;-67
2023/07/05 06:04:38;;;;;;;4.45;3.10;;;;;;;18.36;100.00;96940.44;5033241;28;20403;-67
2023/07/05 06:07:05;;;;;;;6.50;3.70;;;;;;;18.34;100.00;96955.28;5033215;28;20431;-67
2023/07/05 06:09:37;;;;;;;5.40;3.33;;;;;;;18.35;100.00;96949.59;5033169;28;20469;-67
2023/07/05 06:12:04;;;;;;;6.28;3.65;;;;;;;18.50;100.00;96946.47;5033248;28;20458;-67
2023/07/05 06:14:30;;;;;;;6.35;3.70;;;;;;;18.56;100.00;96952.53;5032626;28;20407;-67
2023/07/05 06:16:57;;;;;;;4.47;3.20;;;;;;;18.51;100.00;96964.13;5032507;28;20888;-67
2023/07/05 06:19:24;;;;;;;8.70;3.72;;;;;;;18.57;100.00;96964.03;5032707;28;20403;-67
2023/07/05 06:21:50;;;;;;;5.90;4.00;;;;;;;18.75;100.00;96976.34;5032585;28;20416;-67
2023/07/05 06:24:16;;;;;;;3.33;3.00;;;;;;;18.88;100.00;96975.41;5032721;28;21563;-67
2023/07/05 06:26:42;;;;;;;4.72;3.33;;;;;;;19.00;100.00;96975.59;5032734;28;20419;-67
2023/07/05 06:29:09;;;;;;;7.70;3.83;;;;;;;19.19;100.00;96983.34;5032874;28;20396;-67
2023/07/05 06:31:35;;;;;;;6.63;3.53;;;;;;;19.33;100.00;97008.09;5032616;28;20441;-67
2023/07/05 06:34:01;;;;;;;6.03;3.80;;;;;;;19.37;100.00;97010.97;5032690;28;20491;-67
2023/07/05 06:36:29;;;;;;;6.38;3.50;;;;;;;19.27;100.00;97012.84;5032623;28;20490;-67
2023/07/05 06:38:55;;;;;;;5.40;3.50;;;;;;;19.07;100.00;97016.16;5032624;28;20768;-67
2023/07/05 06:41:21;;;;;;;7.93;3.70;;;;;;;18.80;100.00;97016.44;5032390;28;20421;-68
2023/07/05 06:43:47;;;;;;;5.27;3.80;;;;;;;18.47;100.00;97008.75;5032434;28;20422;-68
2023/07/05 06:46:14;;;;;;;8.40;4.05;;;;;;;18.19;100.00;97008.16;5032409;28;20454;-67
2023/07/05 06:48:40;;;;;;;8.23;4.30;;;;;;;17.98;100.00;97027.75;5030948;28;20411;-67
2023/07/05 06:51:06;;;;;;;9.10;4.90;;;;;;;17.80;100.00;97034.91;5030878;28;20509;-68
2023/07/05 06:53:34;;;;;;;6.72;4.60;;;;;;;17.59;100.00;97047.19;5032078;28;20929;-68
2023/07/05 06:56:00;;;;;;;8.10;4.80;;;;;;;17.44;100.00;97061.72;5032036;28;20414;-68
2023/07/05 06:58:26;;;;;;;8.20;4.43;;;;;;;17.33;100.00;97055.78;5032344;28;20435;-67
2023/07/05 07:00:52;;;;;;;6.03;4.28;;;;;;;17.28;100.00;97052.44;5032098;28;20419;-67
2023/07/05 07:03:18;;;;;;;7.72;4.35;;;;;;;17.29;100.00;97048.69;5031868;28;20403;-67
2023/07/05 07:05:50;;;;;;;9.13;5.22;;;;;;;17.25;100.00;97056.50;5031945;28;20816;-67
2023/07/05 07:08:17;;;;;;;8.77;5.22;;;;;;;17.23;100.00;97055.22;5032183;28;20403;-67
2023/07/05 07:10:44;;;;;;;9.27;5.40;;;;;;;17.21;100.00;97060.09;5031741;28;20403;-67
2023/07/05 07:13:10;;;;;;;9.00;5.03;;;;;;;17.22;100.00;97067.00;5031699;28;21069;-67
2023/07/05 07:15:37;;;;;;;6.35;4.10;;;;;;;17.29;100.00;97070.84;5028820;28;20437;-67
2023/07/05 07:18:03;;;;;;;7.85;4.78;;;;;;;17.39;100.00;97059.94;5030769;28;20978;-67
2023/07/05 07:20:30;;;;;;;8.05;4.93;;;;;;;17.44;100.00;97067.06;5037493;28;20907;-67
2023/07/05 07:22:56;;;;;;;8.25;4.85;;;;;;;17.51;100.00;97064.75;5023783;28;20900;-67
2023/07/05 07:25:22;;;;;;;9.77;5.72;;;;;;;17.57;100.00;97068.91;5031595;28;20403;-67
2023/07/05 07:27:50;;;;;;;11.00;6.10;;;;;;;17.64;100.00;97081.88;5031085;28;20768;-67
2023/07/05 07:30:17;;;;;;;9.32;5.38;;;;;;;17.77;100.00;97079.16;5031680;28;20422;-67
2023/07/05 07:32:45;;;;;;;9.67;4.90;;;;;;;17.87;100.00;97086.16;5031388;28;20876;-67
2023/07/05 07:35:12;;;;;;;6.57;4.53;;;;;;;17.94;100.00;97081.16;5031524;28;20881;-67
2023/07/05 07:37:38;;;;;;;12.05;6.07;;;;;;;17.94;100.00;97083.03;5031646;28;20798;-67
2023/07/05 07:40:06;;;;;;;8.00;5.28;;;;;;;17.92;100.00;97091.38;5031371;28;20442;-67
2023/07/05 07:42:32;;;;;;;8.68;4.93;;;;;;;18.00;100.00;97087.16;5031005;28;20421;-67
2023/07/05 07:45:00;;;;;;;6.50;4.30;;;;;;;18.04;100.00;97096.19;5029976;28;20507;-67
2023/07/05 07:47:26;;;;;;;6.90;3.90;;;;;;;17.96;100.00;97092.38;5031070;28;20430;-67
2023/07/05 07:49:53;;;;;;;4.37;3.40;;;;;;;17.90;100.00;97090.88;5031215;28;20403;-67
2023/07/05 07:52:19;;;;;;;5.10;3.30;;;;;;;17.84;100.00;97097.47;5031098;28;20399;-67
2023/07/05 07:54:45;;;;;;;4.25;3.03;;;;;;;17.84;100.00;97102.03;5031051;28;20422;-67
2023/07/05 07:57:12;;;;;;;5.25;3.03;;;;;;;17.85;100.00;97095.56;5031028;28;20406;-67
2023/07/05 07:59:41;;;;;;;3.77;2.60;;;;;;;17.86;100.00;97105.19;5016421;28;20417;-67
2023/07/05 08:02:12;;;;;;;4.57;3.17;;;;;;;17.80;100.00;97120.59;5011127;28;20936;-67
2023/07/05 08:04:41;;;;;;;6.60;3.40;;;;;;;17.73;100.00;97118.34;5011438;28;20413;-67
2023/07/05 08:07:08;;;;;;;4.53;3.00;;;;;;;17.53;100.00;97124.09;5011440;28;20401;-67
2023/07/05 08:09:34;;;;;;;3.60;2.83;;;;;;;17.46;100.00;97130.97;5011480;28;20413;-67
2023/07/05 08:12:00;;;;;;;5.68;2.90;;;;;;;17.38;100.00;97130.59;5026756;28;20395;-67
2023/07/05 08:14:26;;;;;;;4.60;2.80;;;;;;;17.37;100.00;97131.69;5039514;28;20470;-67
2023/07/05 08:16:52;;;;;;;6.20;3.80;;;;;;;17.36;100.00;97132.78;5037623;28;20801;-67
2023/07/05 08:19:20;;;;;;;5.85;3.63;;;;;;;17.36;100.00;97130.13;5039359;28;20447;-67
2023/07/05 08:21:47;;;;;;;7.20;3.77;;;;;;;17.30;100.00;97139.31;5041449;28;20575;-67
2023/07/05 08:24:15;;;;;;;5.78;3.67;;;;;;;17.25;100.00;97144.78;5048141;28;20875;-67
2023/07/05 08:26:41;;;;;;;6.22;3.53;;;;;;;17.23;100.00;97138.94;5050265;28;20429;-67
2023/07/05 08:29:08;;;;;;;7.28;3.72;;;;;;;17.21;100.00;97151.84;5049587;28;20416;-67
2023/07/05 08:31:34;;;;;;;6.72;3.75;;;;;;;17.20;100.00;97152.94;5049390;28;20405;-67
2023/07/05 08:34:01;;;;;;;5.70;3.67;;;;;;;17.23;100.00;97151.50;5049868;28;20420;-67
2023/07/05 08:36:34;;;;;;;6.03;3.80;;;;;;;17.25;100.00;97149.34;5050240;28;20433;-67
2023/07/05 08:39:05;;;;;;;6.30;4.03;;;;;;;17.28;100.00;97160.25;5051455;28;20393;-67
2023/07/05 08:41:52;;;;;;;6.00;3.70;;;;;;;17.36;100.00;97164.09;5054163;28;20923;-67
2023/07/05 08:44:25;;;;;;;6.82;4.22;;;;;;;17.40;100.00;97168.53;5054183;28;20404;-67
2023/07/05 08:46:57;;;;;;;6.10;3.80;;;;;;;17.47;100.00;97176.16;5054333;28;20389;-67
2023/07/05 08:49:26;;;;;;;6.68;3.97;;;;;;;17.52;100.00;97172.56;5054226;28;20774;-67
2023/07/05 08:51:56;;;;;;;5.90;3.53;;;;;;;17.54;100.00;97183.78;5054132;28;20737;-67
2023/07/05 08:54:32;;;;;;;8.02;4.07;;;;;;;17.60;100.00;97193.28;5054117;28;20405;-67
2023/07/05 08:57:04;;;;;;;6.85;3.90;;;;;;;17.76;100.00;97181.97;5054097;28;20810;-67
2023/07/05 08:59:34;;;;;;;9.38;4.50;;;;;;;17.95;100.00;97184.50;5053943;28;20401;-67
2023/07/05 09:02:00;;;;;;;5.20;3.78;;;;;;;17.93;100.00;97183.22;5053878;28;20413;-67
2023/07/05 09:04:29;;;;;;;4.95;3.50;;;;;;;18.00;100.00;97192.41;5053926;28;20453;-67
2023/07/05 09:07:12;;;;;;;6.63;4.20;;;;;;;18.17;100.00;97191.75;5053889;28;20794;-66
2023/07/05 09:09:53;;;;;;;5.93;3.85;;;;;;;18.27;100.00;97196.09;5053934;28;20391;-66
2023/07/05 09:12:25;;;;;;;5.45;3.50;;;;;;;18.27;100.00;97193.41;5053706;28;20393;-66
2023/07/05 09:15:15;;;;;;;5.60;4.07;;;;;;;18.36;100.00;97203.06;5053820;28;20480;-67
2023/07/05 09:17:50;;;;;;;7.15;4.43;;;;;;;18.38;100.00;97202.78;5051688;28;20423;-66
2023/07/05 09:20:33;;;;;;;7.50;4.22;;;;;;;18.53;100.00;97189.00;5053715;28;20559;-66
2023/07/05 09:23:04;;;;;;;5.07;3.75;;;;;;;18.63;100.00;97199.50;5053463;28;20393;-66
2023/07/05 09:25:33;;;;;;;8.80;4.22;;;;;;;18.51;100.00;97208.06;5053474;28;20397;-66
2023/07/05 09:28:15;;;;;;;6.00;3.92;;;;;;;18.44;100.00;97209.59;5053631;28;20484;-67
2023/07/05 09:30:42;;;;;;;5.75;3.95;;;;;;;18.35;100.00;97216.78;5053444;28;20807;-66
2023/07/05 09:33:19;;;;;;;5.70;4.10;;;;;;;18.40;100.00;97211.31;5053130;28;20401;-66
2023/07/05 09:35:47;;;;;;;5.50;3.70;;;;;;;18.35;100.00;97204.16;5053355;28;20404;-66
2023/07/05 09:38:22;;;;;;;9.10;4.40;;;;;;;18.40;100.00;97209.44;5053323;28;20439;-67
2023/07/05 09:40:54;;;;;;;5.03;3.78;;;;;;;18.42;100.00;97204.53;5053303;28;20417;-66
2023/07/05 09:43:28;;;;;;;8.07;4.90;;;;;;;18.65;100.00;97212.59;5053104;28;20475;-66
2023/07/05 09:45:55;;;;;;;5.87;4.20;;;;;;;18.67;100.00;97197.00;5053308;28;20514;-66
2023/07/05 09:48:21;;;;;;;7.65;4.40;;;;;;;18.69;100.00;97203.63;5053365;28;20436;-66
2023/07/05 09:50:51;;;;;;;5.43;3.92;;;;;;;18.82;100.00;97205.44;5052433;28;20393;-66
2023/07/05 09:53:38;;;;;;;6.38;4.20;;;;;;;18.75;100.00;97204.28;5052937;28;20425;-66
2023/07/05 09:56:08;;;;;;;4.40;3.60;;;;;;;18.92;100.00;97197.13;5053136;28;20390;-67
2023/07/05 09:58:35;;;;;;;6.25;3.42;;;;;;;19.10;100.00;97205.22;5051687;28;20405;-67
2023/07/05 10:01:06;;;;;;;8.38;4.60;;;;;;;19.13;100.00;97202.72;5052789;28;20420;-67
2023/07/05 10:03:35;;;;;;;5.00;3.80;;;;;;;19.06;100.00;97204.28;5052845;28;20414;-67
2023/07/05 10:06:07;;;;;;;5.90;4.20;;;;;;;19.00;100.00;97208.19;5052790;28;20455;-67
2023/07/05 10:08:44;;;;;;;5.95;4.38;;;;;;;18.90;100.00;97209.25;5052871;28;20393;-67
2023/07/05 10:11:22;;;;;;;5.18;4.05;;;;;;;18.74;100.00;97200.81;5052742;28;20420;-67
2023/07/05 10:14:02;;;;;;;5.63;3.85;;;;;;;18.58;100.00;97202.28;5052605;28;20400;-67
2023/07/05 10:16:48;;;;;;;6.38;3.80;;;;;;;18.73;100.00;97212.63;5052422;28;20402;-67
2023/07/05 10:19:29;;;;;;;5.03;4.10;;;;;;;18.76;100.00;97220.06;5052511;28;20405;-67
2023/07/05 10:22:04;;;;;;;5.78;4.07;;;;;;;18.83;100.00;97214.28;5052269;28;20888;-67
2023/07/05 10:24:39;;;;;;;5.95;4.05;;;;;;;18.90;100.00;97215.41;5052381;28;20448;-67
2023/07/05 10:27:23;;;;;;;6.70;4.20;;;;;;;19.12;100.00;97203.81;5052464;28;20417;-68
2023/07/05 10:29:57;;;;;;;5.40;3.75;;;;;;;19.12;100.00;97203.81;5052333;28;20443;-67
2023/07/05 10:32:24;;;;;;;5.90;4.07;;;;;;;19.26;100.00;97204.50;5052139;28;20432;-67
2023/07/05 10:34:50;;;;;;;5.75;3.60;;;;;;;19.31;100.00;97198.22;5052200;28;20423;-67
2023/07/05 10:37:31;;;;;;;4.63;3.58;;;;;;;19.56;100.00;97212.81;5052171;28;20402;-67
2023/07/05 10:40:00;;;;;;;4.78;3.67;;;;;;;19.65;100.00;97219.78;5052127;28;20484;-67
2023/07/05 10:42:27;;;;;;;6.72;4.10;;;;;;;19.79;100.00;97205.44;5051760;28;20425;-67
2023/07/05 10:44:55;;;;;;;4.82;3.63;;;;;;;19.91;100.00;97221.75;5052201;28;20403;-68
2023/07/05 10:47:22;;;;;;;8.38;3.83;;;;;;;19.96;100.00;97218.88;5051987;28;20394;-68
2023/07/05 10:49:51;;;;;;;8.27;3.83;;;;;;;20.13;100.00;97224.28;5050753;28;20405;-68
2023/07/05 10:52:20;;;;;;;5.53;3.80;;;;;;;20.14;100.00;97217.78;5051820;28;20492;-68
2023/07/05 10:54:50;;;;;;;4.45;3.40;;;;;;;20.15;100.00;97213.22;5051814;28;20472;-67
2023/07/05 10:57:24;;;;;;;6.63;3.53;;;;;;;20.42;100.00;97207.50;5050506;28;20462;-68
2023/07/05 10:59:56;;;;;;;4.63;3.70;;;;;;;20.57;100.00;97217.78;5051847;28;20519;-67
2023/07/05 11:02:36;;;;;;;5.10;3.90;;;;;;;20.60;100.00;97210.97;5050592;28;20505;-66
2023/07/05 11:05:04;;;;;;;6.82;3.55;;;;;;;20.70;100.00;97197.16;5051761;28;20859;-67
2023/07/05 11:07:33;;;;;;;5.20;3.72;;;;;;;20.83;100.00;97193.47;5051817;28;20409;-65
2023/07/05 11:09:59;;;;;;;5.37;3.57;;;;;;;20.96;100.00;97192.50;5050400;28;20412;-65
2023/07/05 11:12:29;;;;;;;6.63;3.90;;;;;;;21.39;100.00;97207.69;5051369;28;20415;-66
2023/07/05 11:14:58;;;;;;;5.30;4.05;;;;;;;21.45;100.00;97207.19;5051382;28;20863;-66
2023/07/05 11:17:29;;;;;;;4.43;3.30;;;;;;;21.51;100.00;97202.41;5051553;28;20974;-67
2023/07/05 11:19:56;;;;;;;4.20;2.90;;;;;;;21.60;100.00;97205.84;5051450;28;20400;-66
2023/07/05 11:22:41;;;;;;;5.18;3.60;;;;;;;21.61;100.00;97197.44;5051065;28;20440;-67
2023/07/05 11:25:18;;;;;;;5.60;3.70;;;;;;;21.88;100.00;97206.09;5088199;28;20725;-67
2023/07/05 11:27:53;;;;;;;6.95;3.95;;;;;;;21.94;100.00;97197.53;5088317;28;20414;-67
2023/07/05 11:30:43;;;;;;;6.88;3.53;;;;;;;22.05;100.00;97202.53;5088041;28;20395;-67
2023/07/05 11:33:16;;;;;;;4.97;3.30;;;;;;;22.17;100.00;97205.31;5087935;28;20454;-67